Time;durP1;ratioP1;P1;durP2;ratioP2;P2;SDS_P1;SDS_P2;PMS_P1;PMS_P2;Temp;Humidity;BMP_temperature;BMP_pressure;BME280_temperature;BME280_humidity;BME280_pressure;Samples;Min_cycle;Max_cycle;Signal;HPM_P1;HPM_P2
2021/07/11 00:00:55;;;;;;;8.45;7.40;;;;;;;16.45;70.08;100427.11;2109651;84;31129;-78
2021/07/11 00:03:58;;;;;;;9.55;7.45;;;;;;;16.44;70.16;100424.02;2108959;84;32972;-75
2021/07/11 00:07:00;;;;;;;10.10;6.50;;;;;;;16.43;70.21;100431.76;2108731;84;29028;-70
2021/07/11 00:10:07;;;;;;;11.12;7.55;;;;;;;16.41;70.27;100421.53;2110202;84;27595;-72
2021/07/11 00:13:09;;;;;;;9.30;7.15;;;;;;;16.38;70.36;100422.63;2082773;84;29424;-72
2021/07/11 00:16:11;;;;;;;9.45;6.87;;;;;;;16.35;70.45;100415.24;2110391;84;31024;-74
2021/07/11 00:19:13;;;;;;;9.10;7.00;;;;;;;16.32;70.50;100424.92;2110318;84;32974;-75
2021/07/11 00:22:16;;;;;;;9.90;6.47;;;;;;;16.29;70.64;100423.31;2110321;84;29713;-72
2021/07/11 00:25:18;;;;;;;10.00;7.35;;;;;;;16.28;70.72;100426.98;2110425;84;27930;-71
2021/07/11 00:28:21;;;;;;;9.95;6.15;;;;;;;16.28;70.70;100428.34;2110377;84;28655;-74
2021/07/11 00:31:24;;;;;;;11.57;6.58;;;;;;;16.25;70.85;100425.34;2110366;84;31071;-76
2021/07/11 00:34:26;;;;;;;11.12;7.50;;;;;;;16.23;70.85;100425.94;2110281;84;33592;-77
2021/07/11 00:37:28;;;;;;;10.65;6.60;;;;;;;16.24;70.94;100433.58;2109913;84;29210;-70
2021/07/11 00:40:31;;;;;;;10.48;7.45;;;;;;;16.21;71.28;100431.97;2110427;84;27588;-73
2021/07/11 00:43:34;;;;;;;8.33;6.42;;;;;;;16.19;71.04;100430.33;2103225;84;29283;-73
2021/07/11 00:46:37;;;;;;;10.65;6.37;;;;;;;16.17;70.98;100430.92;2092064;85;31139;-75
2021/07/11 00:49:43;;;;;;;8.40;5.95;;;;;;;16.16;71.00;100434.13;2091988;85;32971;-77
2021/07/11 00:52:45;;;;;;;7.53;6.00;;;;;;;16.13;71.03;100427.58;2092038;85;29121;-74
2021/07/11 00:55:47;;;;;;;10.40;7.15;;;;;;;16.13;71.12;100430.28;2092250;85;27682;-74
2021/07/11 00:58:50;;;;;;;9.63;6.15;;;;;;;16.13;71.16;100437.05;2092022;85;28698;-74
2021/07/11 01:02:18;;;;;;;8.83;5.87;;;;;;;16.13;71.16;100432.14;2091823;85;31098;-73
2021/07/11 01:05:24;;;;;;;10.20;6.20;;;;;;;16.09;71.12;100429.64;2092016;85;33012;-73
2021/07/11 01:08:56;;;;;;;9.80;6.85;;;;;;;16.05;71.16;100432.68;2092054;85;29029;-74
2021/07/11 01:12:06;;;;;;;9.63;6.97;;;;;;;15.99;71.26;100434.45;1984850;89;28002;-74
2021/07/11 01:15:10;;;;;;;6.75;5.78;;;;;;;15.94;71.34;100430.23;1982879;89;28841;-74
2021/07/11 01:18:14;;;;;;;6.67;5.47;;;;;;;15.94;71.41;100433.44;1964113;89;31060;-74
2021/07/11 01:21:19;;;;;;;8.48;6.17;;;;;;;15.91;71.54;100426.39;1983587;89;34379;-74
2021/07/11 01:24:27;;;;;;;11.43;6.45;;;;;;;15.91;71.60;100436.34;1984818;89;29033;-73
2021/07/11 01:27:32;;;;;;;13.05;6.30;;;;;;;15.89;71.62;100432.38;1964019;89;27751;-74
2021/07/11 01:30:35;;;;;;;10.03;6.67;;;;;;;15.87;71.62;100438.41;1984388;89;28660;-77
2021/07/11 01:33:40;;;;;;;13.90;6.95;;;;;;;15.82;71.73;100442.34;1984373;89;31110;-73
2021/07/11 01:36:43;;;;;;;9.78;6.15;;;;;;;15.77;71.77;100436.80;1983444;89;32971;-76
2021/07/11 01:39:46;;;;;;;9.50;6.40;;;;;;;15.75;71.81;100439.20;1983476;89;29042;-75
2021/07/11 01:42:51;;;;;;;9.65;7.10;;;;;;;15.74;71.82;100442.88;2040418;83;27576;-76
2021/07/11 01:45:55;;;;;;;10.95;6.22;;;;;;;15.73;71.96;100435.27;2113253;84;28713;-77
2021/07/11 01:49:00;;;;;;;8.73;6.28;;;;;;;15.73;72.08;100437.09;2113721;84;31084;-77
2021/07/11 01:52:05;;;;;;;9.98;6.12;;;;;;;15.74;72.08;100434.77;2113636;84;33041;-77
2021/07/11 01:55:10;;;;;;;9.65;6.53;;;;;;;15.72;72.04;100432.19;2114156;84;29025;-77
2021/07/11 01:58:12;;;;;;;8.15;7.08;;;;;;;15.70;72.03;100435.97;2087824;84;27697;-76
2021/07/11 02:01:16;;;;;;;7.42;6.10;;;;;;;15.62;72.07;100437.86;2114025;84;29272;-76
2021/07/11 02:04:19;;;;;;;9.43;5.22;;;;;;;15.58;72.14;100442.58;2114254;84;31007;-75
2021/07/11 02:07:21;;;;;;;8.50;5.53;;;;;;;15.56;72.12;100436.41;2114044;84;32960;-73
2021/07/11 02:10:24;;;;;;;7.28;5.65;;;;;;;15.54;72.17;100445.13;2113988;84;29028;-75
2021/07/11 02:13:35;;;;;;;8.60;6.15;;;;;;;15.53;72.25;100443.87;2087486;84;27691;-73
2021/07/11 02:17:09;;;;;;;8.68;6.37;;;;;;;15.48;72.28;100445.04;2112842;84;28493;-76
2021/07/11 02:20:12;;;;;;;7.92;6.28;;;;;;;15.46;72.36;100452.88;2112684;84;31028;-76
2021/07/11 02:23:14;;;;;;;9.83;5.83;;;;;;;15.43;72.33;100459.83;2087235;84;32965;-73
2021/07/11 02:26:16;;;;;;;8.33;5.87;;;;;;;15.39;72.45;100457.83;2114152;84;29024;-74
2021/07/11 02:29:19;;;;;;;7.62;5.40;;;;;;;15.37;72.44;100458.91;2113808;84;27630;-73
2021/07/11 02:32:25;;;;;;;6.50;5.55;;;;;;;15.34;72.44;100455.91;2113946;84;28749;-74
2021/07/11 02:35:33;;;;;;;10.80;6.03;;;;;;;15.32;72.44;100457.37;2111606;84;31061;-71
2021/07/11 02:38:52;;;;;;;9.93;5.90;;;;;;;15.31;72.62;100453.41;2109042;84;32976;-68
2021/07/11 02:41:58;;;;;;;7.50;5.90;;;;;;;15.30;72.61;100449.86;2111938;84;29071;-71
2021/07/11 02:45:02;;;;;;;9.25;5.70;;;;;;;15.28;72.61;100456.34;2098864;84;27850;-74
2021/07/11 02:48:07;;;;;;;6.62;5.87;;;;;;;15.26;72.67;100453.73;2092079;85;28681;-71
2021/07/11 02:51:16;;;;;;;8.83;5.80;;;;;;;15.26;72.63;100466.38;2092144;85;31095;-74
2021/07/11 02:54:24;;;;;;;8.15;5.10;;;;;;;15.23;72.64;100460.67;2091633;85;33076;-70
2021/07/11 02:57:28;;;;;;;9.25;5.95;;;;;;;15.22;72.74;100463.48;2090777;85;29035;-74
2021/07/11 03:00:30;;;;;;;7.83;5.85;;;;;;;15.22;72.86;100464.37;2067966;85;27886;-72
2021/07/11 03:03:34;;;;;;;8.25;5.87;;;;;;;15.22;72.91;100471.12;2092071;85;28645;-69
2021/07/11 03:06:36;;;;;;;10.28;6.35;;;;;;;15.24;72.96;100471.86;2068190;85;31045;-68
2021/07/11 03:09:42;;;;;;;6.60;6.00;;;;;;;15.24;72.93;100469.66;2092107;85;32967;-70
2021/07/11 03:12:47;;;;;;;6.60;5.35;;;;;;;15.19;72.96;100461.88;2092161;85;29034;-70
2021/07/11 03:15:50;;;;;;;7.92;5.87;;;;;;;15.24;72.96;100465.11;2092165;85;27599;-70
2021/07/11 03:18:55;;;;;;;9.50;6.90;;;;;;;15.28;73.03;100472.53;2092098;85;28620;-72
2021/07/11 03:21:58;;;;;;;8.88;6.83;;;;;;;15.30;73.17;100478.70;2092132;85;31018;-72
2021/07/11 03:25:10;;;;;;;10.63;8.08;;;;;;;15.31;73.24;100470.95;2068063;85;33602;-77
2021/07/11 03:28:12;;;;;;;10.40;9.23;;;;;;;15.35;73.31;100477.89;2092128;85;29017;-76
2021/07/11 03:31:16;;;;;;;18.27;11.03;;;;;;;15.40;73.41;100479.80;2092167;85;27696;-76
2021/07/11 03:34:18;;;;;;;12.80;10.58;;;;;;;15.44;73.45;100477.29;2092188;85;28642;-73
2021/07/11 03:37:21;;;;;;;18.25;12.82;;;;;;;15.50;73.48;100485.45;2091734;85;31064;-73
2021/07/11 03:40:31;;;;;;;14.73;10.32;;;;;;;15.56;73.48;100485.02;2092110;85;32965;-73
2021/07/11 03:43:36;;;;;;;15.32;10.88;;;;;;;15.64;73.53;100483.15;2093376;84;29025;-74
2021/07/11 03:46:42;;;;;;;10.88;9.55;;;;;;;15.73;73.53;100475.78;2110740;84;27931;-73
2021/07/11 03:49:49;;;;;;;9.55;8.53;;;;;;;15.82;73.52;100486.91;2110469;84;28684;-70
2021/07/11 03:53:02;;;;;;;11.70;9.13;;;;;;;15.85;73.44;100485.36;2107317;84;31116;-69
2021/07/11 03:56:15;;;;;;;16.48;10.50;;;;;;;15.88;73.33;100483.83;2107425;84;33024;-70
2021/07/11 03:59:30;;;;;;;15.10;9.48;;;;;;;15.90;73.38;100482.75;2107402;84;27877;-69
2021/07/11 04:02:34;;;;;;;11.93;8.08;;;;;;;15.98;73.43;100470.55;2107569;84;27859;-73
2021/07/11 04:05:39;;;;;;;12.73;8.63;;;;;;;16.07;73.41;100476.65;2110534;84;28642;-74
2021/07/11 04:08:44;;;;;;;11.20;7.78;;;;;;;16.17;73.35;100477.75;2110457;84;31087;-73
2021/07/11 04:11:49;;;;;;;;;;;;;;;16.25;73.26;100475.36;2112859;84;32972;-71
2021/07/11 04:14:51;;;;;;;14.68;7.78;;;;;;;16.34;73.20;100472.98;2110059;84;29080;-71
2021/07/11 04:17:58;;;;;;;10.85;7.72;;;;;;;16.40;73.13;100474.77;2109661;84;27621;-72
2021/07/11 04:21:03;;;;;;;11.85;8.60;;;;;;;16.47;73.07;100472.48;2109418;84;28699;-72
2021/07/11 04:24:06;;;;;;;10.43;7.80;;;;;;;16.56;72.90;100475.02;2109881;84;31060;-74
2021/07/11 04:27:10;;;;;;;14.43;7.42;;;;;;;16.61;72.80;100479.61;2081969;84;33003;-74
2021/07/11 04:30:16;;;;;;;13.27;7.47;;;;;;;16.71;72.72;100478.46;2110335;84;29068;-72
2021/07/11 04:33:19;;;;;;;12.98;8.08;;;;;;;16.80;72.58;100478.25;2110328;84;27862;-72
2021/07/11 04:36:23;;;;;;;11.73;7.90;;;;;;;16.89;72.60;100476.23;2110062;84;28820;-73
2021/07/11 04:39:26;;;;;;;12.07;9.30;;;;;;;17.00;72.47;100476.84;2110297;84;31025;-73
2021/07/11 04:42:29;;;;;;;9.43;7.55;;;;;;;17.14;72.46;100477.14;2110259;84;32960;-74
2021/07/11 04:45:32;;;;;;;12.82;7.28;;;;;;;17.26;72.37;100477.60;2098894;82;29102;-74
2021/07/11 04:48:35;;;;;;;15.45;6.28;;;;;;;17.64;72.94;100479.73;2067924;85;27945;-74
2021/07/11 04:51:38;;;;;;;6.40;5.65;;;;;;;18.65;72.90;100473.23;2091988;85;28747;-74
2021/07/11 04:54:40;;;;;;;7.60;5.15;;;;;;;19.93;71.89;100468.57;2067959;85;31190;-74
2021/07/11 04:57:44;;;;;;;7.55;5.60;;;;;;;21.24;70.32;100466.08;2091936;85;32980;-75
2021/07/11 05:00:46;;;;;;;9.45;5.50;;;;;;;22.56;69.03;100458.66;2091637;85;29731;-73
2021/07/11 05:03:49;;;;;;;7.40;4.90;;;;;;;23.86;67.35;100459.86;2090619;85;27902;-75
2021/07/11 05:06:51;;;;;;;7.08;4.90;;;;;;;25.09;65.50;100460.70;2090564;85;28653;-75
2021/07/11 05:09:54;;;;;;;14.55;5.28;;;;;;;26.16;63.19;100464.90;2090567;85;31022;-74
2021/07/11 05:12:56;;;;;;;6.05;4.62;;;;;;;26.95;61.30;100457.80;2091302;85;32924;-72
2021/07/11 05:15:59;;;;;;;5.65;4.70;;;;;;;27.83;59.76;100454.27;2088597;85;28950;-74
2021/07/11 05:19:02;;;;;;;4.75;4.22;;;;;;;28.71;57.54;100457.80;2092044;85;27880;-74
2021/07/11 05:22:05;;;;;;;7.12;4.85;;;;;;;29.13;56.04;100462.26;2092150;85;28657;-75
2021/07/11 05:25:09;;;;;;;7.85;4.85;;;;;;;29.64;54.51;100461.85;2091928;85;31035;-75
2021/07/11 05:28:11;;;;;;;;;;;;;;;30.21;52.85;100454.48;2094565;85;32963;-75
2021/07/11 05:31:14;;;;;;;4.83;4.37;;;;;;;30.76;52.11;100452.38;2109995;84;29118;-75
2021/07/11 05:34:16;;;;;;;5.58;4.75;;;;;;;31.31;51.22;100455.13;2110299;84;27530;-76
2021/07/11 05:37:18;;;;;;;5.00;4.53;;;;;;;31.86;50.11;100450.51;2110184;84;28638;-75
2021/07/11 05:40:21;;;;;;;6.47;4.62;;;;;;;32.20;47.48;100453.59;2109796;84;31084;-73
2021/07/11 05:43:24;;;;;;;8.53;5.17;;;;;;;32.40;47.89;100454.95;2110195;84;33012;-71
2021/07/11 05:46:28;;;;;;;5.33;4.75;;;;;;;32.76;46.28;100440.23;2117171;83;53507;-74
2021/07/11 05:49:30;;;;;;;7.43;4.97;;;;;;;32.97;44.11;100443.77;2119630;83;27710;-73
2021/07/11 05:52:32;;;;;;;5.80;5.20;;;;;;;33.15;44.05;100443.88;2118319;83;28641;-73
2021/07/11 05:55:35;;;;;;;8.95;4.42;;;;;;;33.21;42.46;100437.97;2117995;83;31182;-72
2021/07/11 05:58:37;;;;;;;5.53;4.37;;;;;;;33.19;42.20;100441.50;2119040;83;32958;-74
2021/07/11 06:01:39;;;;;;;7.90;4.20;;;;;;;33.05;40.76;100436.59;2119625;83;28954;-73
2021/07/11 06:04:42;;;;;;;4.92;4.22;;;;;;;33.14;40.11;100436.63;2119365;83;27638;-73
2021/07/11 06:07:45;;;;;;;7.72;4.37;;;;;;;33.23;40.75;100430.27;2119428;83;28700;-74
2021/07/11 06:10:52;;;;;;;4.72;4.28;;;;;;;33.63;39.94;100433.33;2119139;83;31029;-72
2021/07/11 06:13:52;;;;;;;5.37;4.05;;;;;;;33.95;39.25;100433.84;2118843;83;32988;-72
2021/07/11 06:16:56;;;;;;;8.00;3.83;;;;;;;34.04;38.06;100424.12;2118812;83;29725;-69
2021/07/11 06:20:08;;;;;;;4.15;3.80;;;;;;;33.96;35.35;100429.43;2119047;83;27882;-74
2021/07/11 06:23:12;;;;;;;6.37;3.60;;;;;;;33.52;36.49;100425.18;2118597;83;28687;-71
2021/07/11 06:26:18;;;;;;;4.35;3.58;;;;;;;33.38;35.53;100425.84;2118678;83;31048;-75
2021/07/11 06:29:22;;;;;;;4.20;3.80;;;;;;;33.33;36.38;100425.09;2118412;83;33079;-77
2021/07/11 06:32:26;;;;;;;10.58;4.00;;;;;;;33.47;36.36;100423.64;2118380;83;29105;-77
2021/07/11 06:35:29;;;;;;;3.30;3.02;;;;;;;33.68;35.98;100431.25;2119352;82;27743;-76
2021/07/11 06:38:32;;;;;;;7.12;3.20;;;;;;;33.59;35.79;100425.16;2119688;83;28658;-77
2021/07/11 06:41:34;;;;;;;3.27;2.98;;;;;;;33.85;35.82;100422.66;2119726;83;31032;-78
2021/07/11 06:44:38;;;;;;;2.93;2.60;;;;;;;33.98;35.33;100423.66;2119761;83;32976;-75
2021/07/11 06:47:41;;;;;;;4.62;2.67;;;;;;;34.11;35.86;100408.23;2119953;83;29067;-75
2021/07/11 06:50:45;;;;;;;10.48;3.70;;;;;;;34.51;34.85;100410.56;2120000;83;27553;-73
2021/07/11 06:53:47;;;;;;;3.35;3.05;;;;;;;34.45;33.95;100417.08;2119928;83;28716;-70
2021/07/11 06:56:50;;;;;;;4.53;3.42;;;;;;;34.42;34.43;100422.27;2119743;83;31118;-73
2021/07/11 06:59:52;;;;;;;4.37;2.98;;;;;;;34.03;32.29;100419.63;2119512;83;33041;-75
2021/07/11 07:02:55;;;;;;;2.77;2.58;;;;;;;33.86;33.93;100413.24;2119811;83;29085;-73
2021/07/11 07:05:57;;;;;;;4.85;2.65;;;;;;;34.00;34.19;100410.39;2119829;83;27520;-74
2021/07/11 07:08:59;;;;;;;6.78;2.35;;;;;;;34.01;32.74;100412.92;2119430;83;28736;-71
2021/07/11 07:12:02;;;;;;;5.12;2.17;;;;;;;33.87;33.18;100405.77;2119783;83;31015;-74
2021/07/11 07:15:07;;;;;;;2.33;2.12;;;;;;;33.87;32.87;100398.83;2119930;83;35631;-71
2021/07/11 07:18:09;;;;;;;4.67;2.33;;;;;;;33.81;33.13;100399.20;2119783;83;29020;-73
2021/07/11 07:21:11;;;;;;;8.13;2.37;;;;;;;33.82;33.15;100391.70;2113554;83;27660;-68
2021/07/11 07:24:16;;;;;;;7.58;2.75;;;;;;;33.94;32.44;100392.67;2119766;83;28698;-67
2021/07/11 07:27:19;;;;;;;3.72;2.50;;;;;;;33.94;33.27;100394.06;2119660;83;31099;-67
2021/07/11 07:30:22;;;;;;;;;;;;;;;34.02;33.04;100394.30;2115305;83;30225;-71
2021/07/11 07:33:25;;;;;;;2.70;2.50;;;;;;;34.13;33.08;100399.13;2119359;83;29093;-72
2021/07/11 07:36:27;;;;;;;7.35;2.25;;;;;;;34.05;32.25;100393.84;2119818;83;27530;-69
2021/07/11 07:39:30;;;;;;;4.22;2.35;;;;;;;34.08;32.64;100397.05;2112020;83;28394;-69
2021/07/11 07:42:34;;;;;;;3.25;1.98;;;;;;;33.98;31.79;100390.30;2119528;83;31076;-67
2021/07/11 07:45:36;;;;;;;;;;;;;;;33.63;32.30;100389.74;2115828;83;33614;-68
2021/07/11 07:48:39;;;;;;;8.30;2.33;;;;;;;33.42;32.65;100382.66;2119822;83;29061;-67
2021/07/11 07:51:41;;;;;;;3.15;2.10;;;;;;;33.15;32.36;100386.97;2119855;83;27521;-68
2021/07/11 07:54:43;;;;;;;5.42;2.22;;;;;;;32.95;33.11;100384.34;2119778;83;28688;-67
2021/07/11 07:57:46;;;;;;;5.72;2.45;;;;;;;32.78;32.75;100381.19;2091052;83;31097;-69
2021/07/11 08:00:48;;;;;;;6.08;2.00;;;;;;;32.63;33.01;100383.39;2119721;83;32992;-70
2021/07/11 08:03:50;;;;;;;5.78;2.02;;;;;;;32.36;32.83;100389.90;2119796;83;29160;-70
2021/07/11 08:06:52;;;;;;;2.55;1.50;;;;;;;32.34;33.21;100387.03;2119811;83;27972;-70
2021/07/11 08:09:55;;;;;;;4.80;2.35;;;;;;;32.37;33.81;100384.67;2119629;83;28729;-78
2021/07/11 08:12:59;;;;;;;4.78;1.77;;;;;;;32.36;33.75;100389.06;2092726;83;31040;-72
2021/07/11 08:16:00;;;;;;;9.58;1.67;;;;;;;32.27;33.22;100382.91;2119984;83;33203;-72
2021/07/11 08:19:04;;;;;;;3.05;1.60;;;;;;;32.33;33.79;100374.24;2119430;83;29078;-75
2021/07/11 08:22:05;;;;;;;7.15;1.75;;;;;;;32.66;33.97;100381.58;2119739;83;27548;-77
2021/07/11 08:25:10;;;;;;;2.75;1.40;;;;;;;32.64;33.78;100383.20;2118898;83;28637;-76
2021/07/11 08:28:13;;;;;;;5.08;1.67;;;;;;;32.81;33.65;100376.61;2090439;83;31050;-75
2021/07/11 08:31:15;;;;;;;4.15;1.72;;;;;;;32.97;32.89;100379.94;2118357;83;33012;-72
2021/07/11 08:34:18;;;;;;;1.72;1.42;;;;;;;32.76;33.40;100370.88;2112119;83;30483;-74
2021/07/11 08:37:20;;;;;;;2.13;1.93;;;;;;;32.78;33.66;100377.02;2119912;83;27544;-74
2021/07/11 08:40:23;;;;;;;5.58;1.70;;;;;;;32.78;33.72;100375.63;2119262;83;28705;-72
2021/07/11 08:43:25;;;;;;;2.87;1.57;;;;;;;32.78;33.38;100372.02;2091099;83;31095;-70
2021/07/11 08:46:30;;;;;;;2.02;1.50;;;;;;;32.83;33.54;100368.92;2114339;83;32977;-74
2021/07/11 08:49:33;;;;;;;6.85;1.70;;;;;;;32.84;32.89;100378.95;2107556;84;29048;-69
2021/07/11 08:52:37;;;;;;;9.78;1.80;;;;;;;32.56;32.86;100373.72;2109569;84;27949;-69
2021/07/11 08:55:39;;;;;;;2.85;1.70;;;;;;;32.41;32.81;100378.17;2110302;83;28684;-69
2021/07/11 08:58:55;;;;;;;3.35;1.75;;;;;;;32.33;32.91;100375.63;2110275;84;31160;-68
2021/07/11 09:01:58;;;;;;;4.10;1.98;;;;;;;32.10;33.52;100384.73;2110260;84;32986;-69
2021/07/11 09:05:01;;;;;;;4.60;2.03;;;;;;;31.92;33.58;100381.27;2110634;84;29327;-67
2021/07/11 09:08:20;;;;;;;5.72;1.60;;;;;;;31.93;33.94;100384.88;2110056;84;27758;-67
2021/07/11 09:11:21;;;;;;;8.95;1.70;;;;;;;31.98;33.85;100385.09;2109966;84;29581;-68
2021/07/11 09:14:28;;;;;;;5.75;1.80;;;;;;;32.26;34.59;100382.59;2109878;84;31837;-69
2021/07/11 09:17:33;;;;;;;3.12;1.70;;;;;;;32.70;34.95;100381.45;2109661;84;32969;-69
2021/07/11 09:20:58;;;;;;;7.83;3.08;;;;;;;32.99;33.73;100386.13;2110273;84;29358;-71
2021/07/11 09:24:11;;;;;;;3.02;1.70;;;;;;;33.12;33.79;100385.19;2110345;84;27649;-70
2021/07/11 09:27:17;;;;;;;3.25;1.80;;;;;;;33.09;33.02;100376.78;2085946;84;28722;-67
2021/07/11 09:30:19;;;;;;;2.10;1.90;;;;;;;32.75;32.43;100383.55;2110229;84;31123;-68
2021/07/11 09:33:21;;;;;;;6.50;1.90;;;;;;;32.38;33.61;100386.37;2110017;84;32983;-68
2021/07/11 09:36:23;;;;;;;3.70;1.80;;;;;;;32.18;34.27;100379.48;2085511;84;29380;-68
2021/07/11 09:39:26;;;;;;;2.98;2.15;;;;;;;32.07;33.69;100384.32;2110205;84;27744;-68
2021/07/11 09:42:33;;;;;;;5.22;2.20;;;;;;;31.82;33.89;100383.60;2110045;84;28697;-69
2021/07/11 09:45:35;;;;;;;1.75;1.65;;;;;;;31.77;34.71;100388.95;2109243;83;31027;-68
2021/07/11 09:48:37;;;;;;;3.62;1.92;;;;;;;31.70;34.10;100381.14;2119463;83;33019;-69
2021/07/11 09:51:40;;;;;;;4.85;2.42;;;;;;;31.59;34.23;100376.58;2119252;83;29398;-68
2021/07/11 09:54:42;;;;;;;5.67;1.95;;;;;;;31.39;34.11;100372.95;2119598;83;27770;-68
2021/07/11 09:57:52;;;;;;;4.80;2.00;;;;;;;31.27;34.35;100371.34;2086805;83;28647;-67
2021/07/11 10:00:55;;;;;;;3.15;1.95;;;;;;;31.13;34.48;100368.56;2119280;83;31079;-67
2021/07/11 10:03:58;;;;;;;3.50;1.90;;;;;;;30.86;34.54;100369.84;2118798;83;32978;-67
2021/07/11 10:07:01;;;;;;;5.72;2.10;;;;;;;30.68;34.97;100364.91;2118735;83;29337;-66
2021/07/11 10:10:16;;;;;;;4.03;1.57;;;;;;;30.45;34.86;100365.22;2118726;83;27537;-68
2021/07/11 10:13:19;;;;;;;3.40;1.67;;;;;;;30.35;35.37;100361.98;2118499;83;28668;-68
2021/07/11 10:16:24;;;;;;;5.70;2.08;;;;;;;30.28;35.56;100363.34;2118536;83;31127;-68
2021/07/11 10:19:28;;;;;;;2.52;2.33;;;;;;;30.28;35.78;100367.48;2117813;83;32989;-68
2021/07/11 10:22:30;;;;;;;;;;;;;;;30.34;35.72;100374.10;2121830;82;29345;-69
2021/07/11 10:25:36;;;;;;;3.62;1.87;;;;;;;30.37;35.81;100370.39;2088691;83;27764;-68
2021/07/11 10:28:41;;;;;;;1.90;1.75;;;;;;;30.33;35.73;100363.55;2119744;83;28693;-69
2021/07/11 10:31:50;;;;;;;8.73;4.22;;;;;;;30.44;36.01;100362.99;2089430;83;32393;-70
2021/07/11 10:34:53;;;;;;;4.70;2.15;;;;;;;30.52;36.82;100357.81;2119305;83;33036;-68
2021/07/11 10:37:56;;;;;;;1.15;1.05;;;;;;;30.53;36.07;100362.25;2119785;83;29341;-69
2021/07/11 10:41:22;;;;;;;1.50;1.40;;;;;;;30.47;35.90;100365.86;2119469;83;27934;-68
2021/07/11 10:44:27;;;;;;;1.45;1.15;;;;;;;30.41;36.00;100372.20;2119836;83;28641;-68
2021/07/11 10:47:30;;;;;;;2.40;1.87;;;;;;;30.46;36.16;100371.06;2121209;83;31050;-70
2021/07/11 10:50:33;;;;;;;1.32;1.30;;;;;;;30.61;36.15;100374.56;2123323;83;33063;-68
2021/07/11 10:53:37;;;;;;;2.62;1.50;;;;;;;30.72;35.99;100375.01;2123531;83;29411;-71
2021/07/11 10:56:45;;;;;;;;;;;;;;;30.77;36.03;100382.16;2126255;83;27630;-65
2021/07/11 10:59:47;;;;;;;2.98;1.92;;;;;;;30.79;35.43;100377.28;2123510;83;28707;-68
2021/07/11 11:02:53;;;;;;;5.42;1.60;;;;;;;30.74;35.95;100384.83;2123574;83;31080;-66
2021/07/11 11:05:56;;;;;;;2.87;2.08;;;;;;;30.68;35.99;100378.73;2123776;83;32975;-66
2021/07/11 11:08:58;;;;;;;2.08;1.98;;;;;;;30.60;36.04;100371.47;2123296;82;29403;-68
2021/07/11 11:12:00;;;;;;;3.55;2.00;;;;;;;30.49;36.09;100367.03;2123260;83;27555;-69
2021/07/11 11:15:15;;;;;;;3.70;2.15;;;;;;;30.39;36.17;100371.04;2096593;83;28669;-66
2021/07/11 11:18:25;;;;;;;3.30;2.20;;;;;;;30.07;36.21;100375.31;2123458;83;31036;-68
2021/07/11 11:21:27;;;;;;;5.70;2.20;;;;;;;29.79;36.61;100378.94;2123412;83;32969;-68
2021/07/11 11:24:30;;;;;;;6.05;2.02;;;;;;;29.55;36.85;100370.03;2123449;83;29324;-68
2021/07/11 11:27:40;;;;;;;3.62;1.60;;;;;;;29.38;37.23;100362.58;2123248;83;27605;-66
2021/07/11 11:30:45;;;;;;;1.62;1.20;;;;;;;29.29;37.06;100368.73;2122856;83;28704;-68
2021/07/11 11:33:55;;;;;;;2.90;1.90;;;;;;;29.09;37.26;100369.39;2123153;83;31045;-65
2021/07/11 11:36:57;;;;;;;2.62;2.42;;;;;;;28.99;37.59;100363.86;2122712;83;32946;-65
2021/07/11 11:40:09;;;;;;;3.50;2.80;;;;;;;28.92;37.79;100361.03;2123132;83;29339;-64
2021/07/11 11:43:21;;;;;;;2.30;1.50;;;;;;;28.85;37.79;100366.48;2119980;83;27977;-65
2021/07/11 11:46:26;;;;;;;2.65;2.10;;;;;;;28.83;38.25;100363.60;2118622;83;28748;-65
2021/07/11 11:49:32;;;;;;;4.92;2.60;;;;;;;28.78;38.30;100362.81;2110085;84;31106;-67
2021/07/11 11:52:34;;;;;;;8.05;2.50;;;;;;;28.71;38.56;100356.33;2110275;84;32961;-67
2021/07/11 11:55:46;;;;;;;3.77;2.62;;;;;;;28.60;38.56;100352.17;2110364;84;29242;-66
2021/07/11 11:58:48;;;;;;;3.02;2.75;;;;;;;28.57;38.88;100347.91;2110450;84;27864;-66
2021/07/11 12:02:01;;;;;;;3.05;2.77;;;;;;;28.55;39.29;100346.38;2110009;84;28749;-69
2021/07/11 12:05:14;;;;;;;2.80;2.60;;;;;;;28.48;39.25;100340.27;2110141;84;31048;-65
2021/07/11 12:08:16;;;;;;;4.50;3.10;;;;;;;28.39;39.66;100339.20;2085180;84;33024;-65
2021/07/11 12:11:18;;;;;;;15.18;11.68;;;;;;;28.31;39.96;100332.73;2110311;84;29350;-64
2021/07/11 12:14:21;;;;;;;4.30;3.87;;;;;;;28.33;39.78;100327.89;2110093;84;27738;-66
2021/07/11 12:17:24;;;;;;;3.77;3.35;;;;;;;28.33;39.82;100322.92;2086013;84;28718;-67
2021/07/11 12:20:26;;;;;;;4.33;3.25;;;;;;;28.33;40.39;100325.13;2110274;84;31026;-67
2021/07/11 12:23:41;;;;;;;3.90;3.33;;;;;;;28.38;40.67;100326.47;2110307;84;32968;-66
2021/07/11 12:27:02;;;;;;;4.55;3.20;;;;;;;28.32;40.41;100327.55;2109109;84;28056;-66
2021/07/11 12:30:36;;;;;;;8.85;2.75;;;;;;;28.28;40.65;100322.63;2110035;84;27749;-66
2021/07/11 12:33:56;;;;;;;5.17;2.67;;;;;;;28.20;40.50;100318.08;2088007;84;28773;-65
2021/07/11 12:37:15;;;;;;;4.55;2.25;;;;;;;28.17;41.14;100310.20;2109638;84;31891;-65
2021/07/11 12:40:28;;;;;;;3.60;3.33;;;;;;;28.23;40.66;100314.08;2108649;84;30664;-67
2021/07/11 12:43:52;;;;;;;3.85;2.80;;;;;;;28.25;40.87;100319.75;2108767;84;29626;-71
2021/07/11 12:47:14;;;;;;;9.93;2.70;;;;;;;28.19;40.61;100320.00;2109993;83;27937;-68
2021/07/11 12:50:40;;;;;;;5.37;3.80;;;;;;;28.16;40.73;100323.64;2116839;83;27623;-69
2021/07/11 12:53:42;;;;;;;3.10;2.80;;;;;;;28.19;40.91;100324.13;2119617;83;31218;-73
2021/07/11 12:56:54;;;;;;;7.72;3.45;;;;;;;28.30;41.27;100326.89;2119740;83;33091;-66
2021/07/11 12:59:56;;;;;;;2.58;2.37;;;;;;;28.36;41.11;100325.30;2119695;83;29329;-65
2021/07/11 13:03:01;;;;;;;4.17;2.72;;;;;;;28.40;40.91;100321.62;2119815;83;27485;-65
2021/07/11 13:06:04;;;;;;;3.00;2.75;;;;;;;28.39;41.03;100322.13;2119708;83;28694;-65
2021/07/11 13:09:10;;;;;;;6.12;5.33;;;;;;;28.41;40.79;100321.41;2119323;83;31156;-70
2021/07/11 13:12:13;;;;;;;3.37;3.05;;;;;;;28.47;40.51;100314.27;2119293;83;32989;-66
2021/07/11 13:15:18;;;;;;;6.30;2.72;;;;;;;28.54;40.55;100313.00;2118920;83;29291;-64
2021/07/11 13:18:23;;;;;;;3.83;3.47;;;;;;;28.57;40.58;100309.31;2116832;83;27948;-64
2021/07/11 13:21:25;;;;;;;3.33;3.02;;;;;;;28.61;40.44;100305.13;2119138;83;28761;-64
2021/07/11 13:24:27;;;;;;;3.08;2.87;;;;;;;28.71;40.70;100304.78;2119556;83;31019;-64
2021/07/11 13:27:30;;;;;;;3.55;2.42;;;;;;;28.80;40.27;100303.66;2119638;83;33069;-64
2021/07/11 13:30:34;;;;;;;4.77;3.27;;;;;;;28.87;40.23;100297.37;2119651;83;29374;-65
2021/07/11 13:33:36;;;;;;;4.42;3.27;;;;;;;28.94;40.28;100291.37;2119805;83;27864;-65
2021/07/11 13:36:39;;;;;;;2.35;2.15;;;;;;;28.99;40.08;100291.64;2119679;83;28632;-67
2021/07/11 13:39:41;;;;;;;4.15;3.00;;;;;;;28.99;39.19;100285.25;2119598;83;31024;-66
2021/07/11 13:42:46;;;;;;;4.58;2.95;;;;;;;28.95;39.98;100273.27;2119536;83;32945;-67
2021/07/11 13:45:48;;;;;;;4.67;3.10;;;;;;;28.95;39.80;100264.99;2119557;83;29405;-67
2021/07/11 13:48:50;;;;;;;3.50;3.20;;;;;;;28.94;40.59;100259.66;2118350;83;27656;-69
2021/07/11 13:51:52;;;;;;;3.95;3.17;;;;;;;28.94;40.02;100266.05;2117239;83;28684;-68
2021/07/11 13:54:57;;;;;;;3.30;3.00;;;;;;;28.86;39.85;100261.19;2117058;83;31034;-67
2021/07/11 13:58:01;;;;;;;4.15;3.10;;;;;;;28.77;39.85;100263.22;2089625;83;32989;-70
2021/07/11 14:01:04;;;;;;;2.65;2.45;;;;;;;28.63;40.35;100253.92;2119649;83;29364;-67
2021/07/11 14:04:08;;;;;;;3.62;3.33;;;;;;;28.47;40.27;100260.53;2119498;83;27988;-67
2021/07/11 14:07:10;;;;;;;4.13;3.40;;;;;;;28.31;40.07;100256.97;2119497;83;28701;-69
2021/07/11 14:10:14;;;;;;;3.85;3.35;;;;;;;28.20;40.43;100265.74;2119473;83;31033;-68
2021/07/11 14:13:17;;;;;;;6.65;4.92;;;;;;;28.11;40.53;100265.00;2119709;83;32966;-68
2021/07/11 14:16:20;;;;;;;3.80;3.47;;;;;;;28.04;41.13;100263.51;2119632;83;29369;-67
2021/07/11 14:19:23;;;;;;;3.60;3.40;;;;;;;28.03;41.14;100262.34;2120036;83;27855;-68